sensor_id;sensor_type;location;lat;lon;timestamp;P1;durP1;ratioP1;P2;durP2;ratioP2
37495;SDS011;23346;52.088;4.746;2022-07-29T00:00:06;3.47;;;1.27;;
37495;SDS011;23346;52.088;4.746;2022-07-29T00:02:33;3.80;;;1.40;;
37495;SDS011;23346;52.088;4.746;2022-07-29T00:04:59;3.57;;;1.60;;
37495;SDS011;23346;52.088;4.746;2022-07-29T00:07:25;4.85;;;1.45;;
37495;SDS011;23346;52.088;4.746;2022-07-29T00:09:51;2.47;;;1.20;;
37495;SDS011;23346;52.088;4.746;2022-07-29T00:12:18;2.37;;;1.73;;
37495;SDS011;23346;52.088;4.746;2022-07-29T00:14:44;4.85;;;1.63;;
37495;SDS011;23346;52.088;4.746;2022-07-29T00:17:10;2.40;;;1.33;;
37495;SDS011;23346;52.088;4.746;2022-07-29T00:19:36;2.67;;;1.40;;
37495;SDS011;23346;52.088;4.746;2022-07-29T00:22:02;4.63;;;1.67;;
37495;SDS011;23346;52.088;4.746;2022-07-29T00:24:28;3.77;;;1.57;;
37495;SDS011;23346;52.088;4.746;2022-07-29T00:26:54;4.57;;;1.63;;
37495;SDS011;23346;52.088;4.746;2022-07-29T00:29:20;4.57;;;1.77;;
37495;SDS011;23346;52.088;4.746;2022-07-29T00:31:46;2.37;;;1.50;;
37495;SDS011;23346;52.088;4.746;2022-07-29T00:34:12;2.60;;;1.40;;
37495;SDS011;23346;52.088;4.746;2022-07-29T00:36:56;1.75;;;1.40;;
37495;SDS011;23346;52.088;4.746;2022-07-29T00:39:23;4.05;;;1.60;;
37495;SDS011;23346;52.088;4.746;2022-07-29T00:41:49;3.53;;;1.60;;
37495;SDS011;23346;52.088;4.746;2022-07-29T00:44:15;4.00;;;1.57;;
37495;SDS011;23346;52.088;4.746;2022-07-29T00:46:41;2.37;;;1.50;;
37495;SDS011;23346;52.088;4.746;2022-07-29T00:49:07;5.17;;;1.50;;
37495;SDS011;23346;52.088;4.746;2022-07-29T00:51:37;4.87;;;1.67;;
37495;SDS011;23346;52.088;4.746;2022-07-29T00:54:03;4.33;;;1.53;;
37495;SDS011;23346;52.088;4.746;2022-07-29T00:56:30;8.43;;;1.93;;
37495;SDS011;23346;52.088;4.746;2022-07-29T00:58:57;3.30;;;1.87;;
37495;SDS011;23346;52.088;4.746;2022-07-29T01:01:23;6.20;;;1.60;;
37495;SDS011;23346;52.088;4.746;2022-07-29T01:03:49;8.03;;;1.77;;
37495;SDS011;23346;52.088;4.746;2022-07-29T01:06:16;4.33;;;1.60;;
37495;SDS011;23346;52.088;4.746;2022-07-29T01:08:42;3.37;;;1.53;;
37495;SDS011;23346;52.088;4.746;2022-07-29T01:11:09;4.23;;;1.90;;
37495;SDS011;23346;52.088;4.746;2022-07-29T01:13:35;2.93;;;1.70;;
37495;SDS011;23346;52.088;4.746;2022-07-29T01:16:10;5.07;;;1.87;;
37495;SDS011;23346;52.088;4.746;2022-07-29T01:18:39;5.47;;;1.90;;
37495;SDS011;23346;52.088;4.746;2022-07-29T01:21:13;3.22;;;1.63;;
37495;SDS011;23346;52.088;4.746;2022-07-29T01:28:47;4.23;;;1.80;;
37495;SDS011;23346;52.088;4.746;2022-07-29T01:31:18;3.57;;;1.63;;
37495;SDS011;23346;52.088;4.746;2022-07-29T01:33:48;3.93;;;1.60;;
37495;SDS011;23346;52.088;4.746;2022-07-29T01:36:17;2.67;;;1.70;;
37495;SDS011;23346;52.088;4.746;2022-07-29T01:38:45;4.23;;;1.50;;
37495;SDS011;23346;52.088;4.746;2022-07-29T01:41:15;4.07;;;1.50;;
37495;SDS011;23346;52.088;4.746;2022-07-29T01:43:44;5.20;;;1.90;;
37495;SDS011;23346;52.088;4.746;2022-07-29T01:46:14;8.90;;;1.80;;
37495;SDS011;23346;52.088;4.746;2022-07-29T01:48:52;5.50;;;1.63;;
37495;SDS011;23346;52.088;4.746;2022-07-29T01:51:19;3.57;;;1.93;;
37495;SDS011;23346;52.088;4.746;2022-07-29T01:53:50;11.07;;;1.93;;
37495;SDS011;23346;52.088;4.746;2022-07-29T01:56:19;6.57;;;1.77;;
37495;SDS011;23346;52.088;4.746;2022-07-29T01:58:46;7.90;;;1.90;;
37495;SDS011;23346;52.088;4.746;2022-07-29T02:01:13;3.80;;;2.10;;
37495;SDS011;23346;52.088;4.746;2022-07-29T02:03:43;4.60;;;1.50;;
37495;SDS011;23346;52.088;4.746;2022-07-29T02:06:09;3.77;;;1.80;;
37495;SDS011;23346;52.088;4.746;2022-07-29T02:08:36;4.30;;;1.70;;
37495;SDS011;23346;52.088;4.746;2022-07-29T02:11:03;2.77;;;1.97;;
37495;SDS011;23346;52.088;4.746;2022-07-29T02:13:30;2.90;;;1.60;;
37495;SDS011;23346;52.088;4.746;2022-07-29T02:15:58;5.03;;;1.60;;
37495;SDS011;23346;52.088;4.746;2022-07-29T02:18:26;4.67;;;1.77;;
37495;SDS011;23346;52.088;4.746;2022-07-29T02:20:53;3.13;;;1.90;;
37495;SDS011;23346;52.088;4.746;2022-07-29T02:23:22;6.00;;;1.70;;
37495;SDS011;23346;52.088;4.746;2022-07-29T02:25:49;8.20;;;2.00;;
37495;SDS011;23346;52.088;4.746;2022-07-29T02:28:16;3.57;;;2.17;;
37495;SDS011;23346;52.088;4.746;2022-07-29T02:30:42;2.33;;;1.93;;
37495;SDS011;23346;52.088;4.746;2022-07-29T02:33:09;5.00;;;2.20;;
37495;SDS011;23346;52.088;4.746;2022-07-29T02:35:37;2.93;;;2.03;;
37495;SDS011;23346;52.088;4.746;2022-07-29T02:38:05;7.73;;;2.30;;
37495;SDS011;23346;52.088;4.746;2022-07-29T02:40:50;2.83;;;1.90;;
37495;SDS011;23346;52.088;4.746;2022-07-29T02:43:16;4.67;;;1.90;;
37495;SDS011;23346;52.088;4.746;2022-07-29T02:45:43;2.80;;;1.83;;
37495;SDS011;23346;52.088;4.746;2022-07-29T02:48:13;6.17;;;1.93;;
37495;SDS011;23346;52.088;4.746;2022-07-29T02:50:43;6.67;;;2.17;;
37495;SDS011;23346;52.088;4.746;2022-07-29T02:53:20;8.37;;;2.13;;
37495;SDS011;23346;52.088;4.746;2022-07-29T02:55:53;4.00;;;2.33;;
37495;SDS011;23346;52.088;4.746;2022-07-29T03:00:47;4.70;;;2.30;;
37495;SDS011;23346;52.088;4.746;2022-07-29T03:03:15;5.43;;;2.00;;
37495;SDS011;23346;52.088;4.746;2022-07-29T03:05:41;3.83;;;2.37;;
37495;SDS011;23346;52.088;4.746;2022-07-29T03:08:09;8.03;;;2.50;;
37495;SDS011;23346;52.088;4.746;2022-07-29T03:10:35;7.60;;;2.77;;
37495;SDS011;23346;52.088;4.746;2022-07-29T03:13:03;4.90;;;2.30;;
37495;SDS011;23346;52.088;4.746;2022-07-29T03:15:30;5.40;;;2.60;;
37495;SDS011;23346;52.088;4.746;2022-07-29T03:17:56;4.33;;;2.63;;
37495;SDS011;23346;52.088;4.746;2022-07-29T03:20:24;5.53;;;2.83;;
37495;SDS011;23346;52.088;4.746;2022-07-29T03:22:50;6.77;;;3.20;;
37495;SDS011;23346;52.088;4.746;2022-07-29T03:25:17;5.80;;;2.90;;
37495;SDS011;23346;52.088;4.746;2022-07-29T03:27:43;6.43;;;2.80;;
37495;SDS011;23346;52.088;4.746;2022-07-29T03:30:10;4.80;;;2.80;;
37495;SDS011;23346;52.088;4.746;2022-07-29T03:32:36;8.80;;;3.30;;
37495;SDS011;23346;52.088;4.746;2022-07-29T03:35:03;7.17;;;2.93;;
37495;SDS011;23346;52.088;4.746;2022-07-29T03:37:29;4.93;;;3.03;;
37495;SDS011;23346;52.088;4.746;2022-07-29T03:39:56;7.70;;;2.90;;
37495;SDS011;23346;52.088;4.746;2022-07-29T03:42:28;4.83;;;2.90;;
37495;SDS011;23346;52.088;4.746;2022-07-29T03:44:56;5.20;;;3.07;;
37495;SDS011;23346;52.088;4.746;2022-07-29T03:47:23;4.50;;;2.90;;
37495;SDS011;23346;52.088;4.746;2022-07-29T03:49:51;5.47;;;3.30;;
37495;SDS011;23346;52.088;4.746;2022-07-29T03:52:18;5.07;;;3.20;;
37495;SDS011;23346;52.088;4.746;2022-07-29T03:54:44;8.97;;;2.50;;
37495;SDS011;23346;52.088;4.746;2022-07-29T03:57:11;5.47;;;2.93;;
37495;SDS011;23346;52.088;4.746;2022-07-29T03:59:37;4.13;;;2.93;;
37495;SDS011;23346;52.088;4.746;2022-07-29T04:02:04;3.67;;;2.97;;
37495;SDS011;23346;52.088;4.746;2022-07-29T04:04:34;6.17;;;3.13;;
37495;SDS011;23346;52.088;4.746;2022-07-29T04:07:00;8.40;;;3.53;;
37495;SDS011;23346;52.088;4.746;2022-07-29T04:09:26;7.70;;;3.40;;
37495;SDS011;23346;52.088;4.746;2022-07-29T04:11:52;8.53;;;3.47;;
37495;SDS011;23346;52.088;4.746;2022-07-29T04:14:18;5.57;;;3.40;;
37495;SDS011;23346;52.088;4.746;2022-07-29T04:16:45;5.07;;;3.30;;
37495;SDS011;23346;52.088;4.746;2022-07-29T04:19:11;4.70;;;3.50;;
37495;SDS011;23346;52.088;4.746;2022-07-29T04:21:38;4.57;;;3.37;;
37495;SDS011;23346;52.088;4.746;2022-07-29T04:24:04;8.93;;;3.30;;
37495;SDS011;23346;52.088;4.746;2022-07-29T04:26:30;9.03;;;3.47;;
37495;SDS011;23346;52.088;4.746;2022-07-29T04:28:56;4.27;;;3.03;;
37495;SDS011;23346;52.088;4.746;2022-07-29T04:31:22;4.00;;;3.27;;
37495;SDS011;23346;52.088;4.746;2022-07-29T04:33:48;3.77;;;3.10;;
37495;SDS011;23346;52.088;4.746;2022-07-29T04:36:13;4.40;;;2.80;;
37495;SDS011;23346;52.088;4.746;2022-07-29T04:38:40;5.87;;;3.00;;
37495;SDS011;23346;52.088;4.746;2022-07-29T04:41:09;3.67;;;3.03;;
37495;SDS011;23346;52.088;4.746;2022-07-29T04:43:35;6.47;;;2.83;;
37495;SDS011;23346;52.088;4.746;2022-07-29T04:46:02;9.23;;;2.57;;
37495;SDS011;23346;52.088;4.746;2022-07-29T04:48:28;2.83;;;2.57;;
37495;SDS011;23346;52.088;4.746;2022-07-29T04:50:54;8.13;;;3.03;;
37495;SDS011;23346;52.088;4.746;2022-07-29T04:53:20;6.20;;;2.90;;
37495;SDS011;23346;52.088;4.746;2022-07-29T04:55:46;5.00;;;2.60;;
37495;SDS011;23346;52.088;4.746;2022-07-29T04:58:12;5.03;;;2.57;;
37495;SDS011;23346;52.088;4.746;2022-07-29T05:00:38;6.80;;;2.53;;
37495;SDS011;23346;52.088;4.746;2022-07-29T05:03:05;6.13;;;2.40;;
37495;SDS011;23346;52.088;4.746;2022-07-29T05:05:31;5.97;;;2.50;;
37495;SDS011;23346;52.088;4.746;2022-07-29T05:07:57;9.93;;;2.60;;
37495;SDS011;23346;52.088;4.746;2022-07-29T05:10:23;2.73;;;2.03;;
37495;SDS011;23346;52.088;4.746;2022-07-29T05:12:49;5.07;;;2.57;;
37495;SDS011;23346;52.088;4.746;2022-07-29T05:15:15;5.17;;;2.87;;
37495;SDS011;23346;52.088;4.746;2022-07-29T05:17:42;5.97;;;2.50;;
37495;SDS011;23346;52.088;4.746;2022-07-29T05:20:08;4.60;;;2.67;;
37495;SDS011;23346;52.088;4.746;2022-07-29T05:22:34;4.30;;;2.67;;
37495;SDS011;23346;52.088;4.746;2022-07-29T05:25:00;9.30;;;2.60;;
37495;SDS011;23346;52.088;4.746;2022-07-29T05:27:27;3.63;;;2.57;;
37495;SDS011;23346;52.088;4.746;2022-07-29T05:29:53;8.67;;;2.77;;
37495;SDS011;23346;52.088;4.746;2022-07-29T05:32:19;9.67;;;2.83;;
37495;SDS011;23346;52.088;4.746;2022-07-29T05:34:45;4.50;;;2.90;;
37495;SDS011;23346;52.088;4.746;2022-07-29T05:37:11;4.93;;;2.40;;
37495;SDS011;23346;52.088;4.746;2022-07-29T05:39:38;4.03;;;2.70;;
37495;SDS011;23346;52.088;4.746;2022-07-29T05:42:07;6.87;;;2.67;;
37495;SDS011;23346;52.088;4.746;2022-07-29T05:44:36;3.73;;;2.73;;
37495;SDS011;23346;52.088;4.746;2022-07-29T05:47:02;3.37;;;2.63;;
37495;SDS011;23346;52.088;4.746;2022-07-29T05:49:27;4.93;;;2.10;;
37495;SDS011;23346;52.088;4.746;2022-07-29T05:51:53;3.33;;;2.60;;
37495;SDS011;23346;52.088;4.746;2022-07-29T05:54:19;5.37;;;2.13;;
37495;SDS011;23346;52.088;4.746;2022-07-29T05:56:45;3.47;;;2.60;;
37495;SDS011;23346;52.088;4.746;2022-07-29T05:59:11;5.40;;;2.10;;
37495;SDS011;23346;52.088;4.746;2022-07-29T06:01:37;3.30;;;2.10;;
37495;SDS011;23346;52.088;4.746;2022-07-29T06:04:05;4.57;;;2.17;;
37495;SDS011;23346;52.088;4.746;2022-07-29T06:06:31;3.87;;;2.27;;
37495;SDS011;23346;52.088;4.746;2022-07-29T06:08:58;4.55;;;2.33;;
37495;SDS011;23346;52.088;4.746;2022-07-29T06:11:24;3.53;;;1.93;;
37495;SDS011;23346;52.088;4.746;2022-07-29T06:13:50;7.68;;;2.17;;
37495;SDS011;23346;52.088;4.746;2022-07-29T06:16:16;5.45;;;1.88;;
37495;SDS011;23346;52.088;4.746;2022-07-29T06:18:42;2.67;;;1.73;;
37495;SDS011;23346;52.088;4.746;2022-07-29T06:21:08;7.95;;;2.03;;
37495;SDS011;23346;52.088;4.746;2022-07-29T06:23:38;4.78;;;2.00;;
37495;SDS011;23346;52.088;4.746;2022-07-29T06:26:04;4.43;;;1.70;;
37495;SDS011;23346;52.088;4.746;2022-07-29T06:28:30;3.92;;;1.75;;
37495;SDS011;23346;52.088;4.746;2022-07-29T06:30:56;6.03;;;1.80;;
37495;SDS011;23346;52.088;4.746;2022-07-29T06:33:22;2.85;;;1.67;;
37495;SDS011;23346;52.088;4.746;2022-07-29T06:35:49;4.43;;;1.25;;
37495;SDS011;23346;52.088;4.746;2022-07-29T06:38:15;4.97;;;1.92;;
37495;SDS011;23346;52.088;4.746;2022-07-29T06:40:44;4.40;;;1.50;;
37495;SDS011;23346;52.088;4.746;2022-07-29T06:43:34;4.45;;;1.50;;
37495;SDS011;23346;52.088;4.746;2022-07-29T06:46:03;2.90;;;1.60;;
37495;SDS011;23346;52.088;4.746;2022-07-29T06:48:29;3.08;;;1.30;;
37495;SDS011;23346;52.088;4.746;2022-07-29T06:50:55;2.28;;;1.23;;
37495;SDS011;23346;52.088;4.746;2022-07-29T06:53:22;5.97;;;1.58;;
37495;SDS011;23346;52.088;4.746;2022-07-29T06:55:48;4.70;;;1.40;;
37495;SDS011;23346;52.088;4.746;2022-07-29T06:58:14;7.68;;;1.73;;
37495;SDS011;23346;52.088;4.746;2022-07-29T07:00:42;3.15;;;1.40;;
37495;SDS011;23346;52.088;4.746;2022-07-29T07:03:09;3.10;;;1.40;;
37495;SDS011;23346;52.088;4.746;2022-07-29T07:05:35;3.13;;;1.35;;
37495;SDS011;23346;52.088;4.746;2022-07-29T07:08:01;2.58;;;1.25;;
37495;SDS011;23346;52.088;4.746;2022-07-29T07:10:27;2.30;;;1.33;;
37495;SDS011;23346;52.088;4.746;2022-07-29T07:12:53;4.78;;;1.33;;
37495;SDS011;23346;52.088;4.746;2022-07-29T07:15:19;5.05;;;1.27;;
37495;SDS011;23346;52.088;4.746;2022-07-29T07:17:47;3.20;;;1.33;;
37495;SDS011;23346;52.088;4.746;2022-07-29T07:20:13;8.63;;;1.25;;
37495;SDS011;23346;52.088;4.746;2022-07-29T07:22:39;5.00;;;1.40;;
37495;SDS011;23346;52.088;4.746;2022-07-29T07:25:06;3.42;;;1.75;;
37495;SDS011;23346;52.088;4.746;2022-07-29T07:27:32;4.05;;;1.45;;
37495;SDS011;23346;52.088;4.746;2022-07-29T07:29:58;2.45;;;1.40;;
37495;SDS011;23346;52.088;4.746;2022-07-29T07:32:24;3.72;;;1.55;;
37495;SDS011;23346;52.088;4.746;2022-07-29T07:34:50;3.05;;;1.38;;
37495;SDS011;23346;52.088;4.746;2022-07-29T07:37:16;5.25;;;1.60;;
37495;SDS011;23346;52.088;4.746;2022-07-29T07:39:44;6.63;;;1.73;;
37495;SDS011;23346;52.088;4.746;2022-07-29T07:42:10;3.85;;;1.50;;
37495;SDS011;23346;52.088;4.746;2022-07-29T07:44:37;6.93;;;1.85;;
37495;SDS011;23346;52.088;4.746;2022-07-29T07:47:04;6.32;;;2.08;;
37495;SDS011;23346;52.088;4.746;2022-07-29T07:49:30;3.08;;;1.27;;
37495;SDS011;23346;52.088;4.746;2022-07-29T07:51:56;3.15;;;1.42;;
37495;SDS011;23346;52.088;4.746;2022-07-29T07:54:22;2.55;;;1.40;;
37495;SDS011;23346;52.088;4.746;2022-07-29T07:56:48;3.80;;;1.60;;
37495;SDS011;23346;52.088;4.746;2022-07-29T07:59:14;4.50;;;1.30;;
37495;SDS011;23346;52.088;4.746;2022-07-29T08:01:41;3.55;;;1.33;;
37495;SDS011;23346;52.088;4.746;2022-07-29T08:04:07;4.93;;;1.48;;
37495;SDS011;23346;52.088;4.746;2022-07-29T08:06:33;6.55;;;1.20;;
37495;SDS011;23346;52.088;4.746;2022-07-29T08:09:00;3.80;;;1.55;;
37495;SDS011;23346;52.088;4.746;2022-07-29T08:11:26;3.28;;;1.52;;
37495;SDS011;23346;52.088;4.746;2022-07-29T08:13:53;4.53;;;1.20;;
37495;SDS011;23346;52.088;4.746;2022-07-29T08:16:19;2.78;;;1.20;;
37495;SDS011;23346;52.088;4.746;2022-07-29T08:18:45;8.52;;;1.65;;
37495;SDS011;23346;52.088;4.746;2022-07-29T08:21:12;4.70;;;1.45;;
37495;SDS011;23346;52.088;4.746;2022-07-29T08:23:39;5.68;;;1.73;;
37495;SDS011;23346;52.088;4.746;2022-07-29T08:26:10;2.88;;;1.25;;
37495;SDS011;23346;52.088;4.746;2022-07-29T08:28:37;3.08;;;1.40;;
37495;SDS011;23346;52.088;4.746;2022-07-29T08:31:03;5.45;;;1.60;;
37495;SDS011;23346;52.088;4.746;2022-07-29T08:33:29;3.97;;;1.58;;
37495;SDS011;23346;52.088;4.746;2022-07-29T08:35:55;6.22;;;1.35;;
37495;SDS011;23346;52.088;4.746;2022-07-29T08:38:21;2.88;;;1.40;;
37495;SDS011;23346;52.088;4.746;2022-07-29T08:40:47;5.93;;;1.75;;
37495;SDS011;23346;52.088;4.746;2022-07-29T08:43:14;5.88;;;1.73;;
37495;SDS011;23346;52.088;4.746;2022-07-29T08:45:44;6.80;;;1.88;;
37495;SDS011;23346;52.088;4.746;2022-07-29T08:48:13;6.03;;;1.42;;
37495;SDS011;23346;52.088;4.746;2022-07-29T08:50:40;3.38;;;1.42;;
37495;SDS011;23346;52.088;4.746;2022-07-29T08:53:07;6.05;;;1.83;;
37495;SDS011;23346;52.088;4.746;2022-07-29T08:55:33;7.22;;;2.03;;
37495;SDS011;23346;52.088;4.746;2022-07-29T08:57:59;4.90;;;1.55;;
37495;SDS011;23346;52.088;4.746;2022-07-29T09:00:26;6.38;;;1.50;;
37495;SDS011;23346;52.088;4.746;2022-07-29T09:02:55;1.98;;;1.30;;
37495;SDS011;23346;52.088;4.746;2022-07-29T09:05:23;5.28;;;1.67;;
37495;SDS011;23346;52.088;4.746;2022-07-29T09:07:50;8.45;;;1.60;;
37495;SDS011;23346;52.088;4.746;2022-07-29T09:10:16;3.25;;;1.52;;
37495;SDS011;23346;52.088;4.746;2022-07-29T09:12:42;7.35;;;1.58;;
37495;SDS011;23346;52.088;4.746;2022-07-29T09:15:08;4.82;;;1.30;;
37495;SDS011;23346;52.088;4.746;2022-07-29T09:17:44;4.10;;;1.63;;
37495;SDS011;23346;52.088;4.746;2022-07-29T09:20:11;4.28;;;1.70;;
37495;SDS011;23346;52.088;4.746;2022-07-29T09:22:37;3.88;;;1.30;;
37495;SDS011;23346;52.088;4.746;2022-07-29T09:25:04;3.83;;;1.30;;
37495;SDS011;23346;52.088;4.746;2022-07-29T09:27:30;4.55;;;1.45;;
37495;SDS011;23346;52.088;4.746;2022-07-29T09:29:56;4.78;;;1.98;;
37495;SDS011;23346;52.088;4.746;2022-07-29T09:32:23;4.70;;;1.63;;
37495;SDS011;23346;52.088;4.746;2022-07-29T09:34:49;4.50;;;1.40;;
37495;SDS011;23346;52.088;4.746;2022-07-29T09:37:30;8.70;;;2.17;;
37495;SDS011;23346;52.088;4.746;2022-07-29T09:39:56;3.92;;;1.40;;
37495;SDS011;23346;52.088;4.746;2022-07-29T09:42:28;4.93;;;1.88;;
37495;SDS011;23346;52.088;4.746;2022-07-29T09:44:57;4.30;;;1.52;;
37495;SDS011;23346;52.088;4.746;2022-07-29T09:47:25;5.63;;;2.03;;
37495;SDS011;23346;52.088;4.746;2022-07-29T09:50:05;6.07;;;1.40;;
37495;SDS011;23346;52.088;4.746;2022-07-29T09:52:32;4.72;;;1.40;;
37495;SDS011;23346;52.088;4.746;2022-07-29T09:55:10;5.03;;;1.48;;
37495;SDS011;23346;52.088;4.746;2022-07-29T09:57:36;5.40;;;1.73;;
37495;SDS011;23346;52.088;4.746;2022-07-29T10:00:09;2.70;;;1.38;;
37495;SDS011;23346;52.088;4.746;2022-07-29T10:02:37;8.50;;;1.70;;
37495;SDS011;23346;52.088;4.746;2022-07-29T10:05:05;5.43;;;1.30;;
37495;SDS011;23346;52.088;4.746;2022-07-29T10:10:09;4.60;;;1.60;;
37495;SDS011;23346;52.088;4.746;2022-07-29T10:12:47;6.75;;;1.60;;
37495;SDS011;23346;52.088;4.746;2022-07-29T10:15:14;4.10;;;1.58;;
37495;SDS011;23346;52.088;4.746;2022-07-29T10:17:41;9.18;;;1.60;;
37495;SDS011;23346;52.088;4.746;2022-07-29T10:20:07;13.52;;;1.63;;
37495;SDS011;23346;52.088;4.746;2022-07-29T10:22:34;4.95;;;1.33;;
37495;SDS011;23346;52.088;4.746;2022-07-29T10:25:00;7.65;;;1.55;;
37495;SDS011;23346;52.088;4.746;2022-07-29T10:27:26;6.10;;;1.52;;
37495;SDS011;23346;52.088;4.746;2022-07-29T10:29:53;8.75;;;1.30;;
37495;SDS011;23346;52.088;4.746;2022-07-29T10:40:26;5.53;;;1.00;;
37495;SDS011;23346;52.088;4.746;2022-07-29T10:46:00;3.78;;;1.00;;
37495;SDS011;23346;52.088;4.746;2022-07-29T10:48:26;8.07;;;1.20;;
37495;SDS011;23346;52.088;4.746;2022-07-29T10:53:25;3.70;;;1.20;;
37495;SDS011;23346;52.088;4.746;2022-07-29T10:56:29;9.65;;;1.20;;
37495;SDS011;23346;52.088;4.746;2022-07-29T11:01:40;11.77;;;1.45;;
37495;SDS011;23346;52.088;4.746;2022-07-29T11:04:06;6.63;;;1.27;;
37495;SDS011;23346;52.088;4.746;2022-07-29T11:07:18;5.35;;;1.50;;
37495;SDS011;23346;52.088;4.746;2022-07-29T11:09:19;10.02;;;1.20;;
37495;SDS011;23346;52.088;4.746;2022-07-29T11:11:45;7.78;;;1.95;;
37495;SDS011;23346;52.088;4.746;2022-07-29T11:14:11;3.75;;;1.35;;
37495;SDS011;23346;52.088;4.746;2022-07-29T11:19:22;2.38;;;1.17;;
37495;SDS011;23346;52.088;4.746;2022-07-29T11:21:48;4.80;;;1.25;;
37495;SDS011;23346;52.088;4.746;2022-07-29T11:24:15;6.20;;;1.15;;
37495;SDS011;23346;52.088;4.746;2022-07-29T11:26:42;7.18;;;1.35;;
37495;SDS011;23346;52.088;4.746;2022-07-29T11:29:20;3.95;;;1.20;;
37495;SDS011;23346;52.088;4.746;2022-07-29T11:31:50;5.90;;;1.42;;
37495;SDS011;23346;52.088;4.746;2022-07-29T11:34:29;3.97;;;1.33;;
37495;SDS011;23346;52.088;4.746;2022-07-29T11:39:39;4.47;;;1.27;;
37495;SDS011;23346;52.088;4.746;2022-07-29T11:45:15;5.07;;;1.23;;
37495;SDS011;23346;52.088;4.746;2022-07-29T11:47:35;2.95;;;1.10;;
37495;SDS011;23346;52.088;4.746;2022-07-29T11:50:02;4.30;;;1.58;;
37495;SDS011;23346;52.088;4.746;2022-07-29T11:52:36;5.88;;;1.30;;
37495;SDS011;23346;52.088;4.746;2022-07-29T11:55:07;6.68;;;1.35;;
37495;SDS011;23346;52.088;4.746;2022-07-29T11:57:34;8.23;;;1.35;;
37495;SDS011;23346;52.088;4.746;2022-07-29T12:00:00;4.93;;;1.25;;
37495;SDS011;23346;52.088;4.746;2022-07-29T12:02:37;8.90;;;1.35;;
37495;SDS011;23346;52.088;4.746;2022-07-29T12:05:04;3.58;;;1.40;;
37495;SDS011;23346;52.088;4.746;2022-07-29T12:07:31;5.47;;;1.40;;
37495;SDS011;23346;52.088;4.746;2022-07-29T12:09:57;8.02;;;1.75;;
37495;SDS011;23346;52.088;4.746;2022-07-29T12:12:24;5.15;;;1.70;;
37495;SDS011;23346;52.088;4.746;2022-07-29T12:14:50;5.75;;;1.90;;
37495;SDS011;23346;52.088;4.746;2022-07-29T12:17:25;4.78;;;1.55;;
37495;SDS011;23346;52.088;4.746;2022-07-29T12:19:52;3.58;;;1.63;;
37495;SDS011;23346;52.088;4.746;2022-07-29T12:22:29;7.30;;;1.65;;
37495;SDS011;23346;52.088;4.746;2022-07-29T12:25:00;9.50;;;2.22;;
37495;SDS011;23346;52.088;4.746;2022-07-29T12:27:26;4.90;;;2.00;;
37495;SDS011;23346;52.088;4.746;2022-07-29T12:29:59;6.43;;;1.77;;
37495;SDS011;23346;52.088;4.746;2022-07-29T12:32:42;4.38;;;1.85;;
37495;SDS011;23346;52.088;4.746;2022-07-29T12:35:10;4.88;;;2.00;;
37495;SDS011;23346;52.088;4.746;2022-07-29T12:37:37;4.28;;;1.67;;
37495;SDS011;23346;52.088;4.746;2022-07-29T12:40:04;4.60;;;2.10;;
37495;SDS011;23346;52.088;4.746;2022-07-29T12:42:30;3.17;;;0.90;;
37495;SDS011;23346;52.088;4.746;2022-07-29T12:44:56;7.25;;;1.80;;
37495;SDS011;23346;52.088;4.746;2022-07-29T12:47:23;5.28;;;1.85;;
37495;SDS011;23346;52.088;4.746;2022-07-29T12:49:49;4.78;;;1.50;;
37495;SDS011;23346;52.088;4.746;2022-07-29T12:54:53;4.90;;;1.63;;
37495;SDS011;23346;52.088;4.746;2022-07-29T12:57:19;4.72;;;1.02;;
37495;SDS011;23346;52.088;4.746;2022-07-29T12:59:58;3.00;;;1.23;;
37495;SDS011;23346;52.088;4.746;2022-07-29T13:02:24;7.15;;;1.58;;
37495;SDS011;23346;52.088;4.746;2022-07-29T13:04:57;3.92;;;1.80;;
37495;SDS011;23346;52.088;4.746;2022-07-29T13:07:24;5.57;;;1.33;;
37495;SDS011;23346;52.088;4.746;2022-07-29T13:09:50;3.63;;;1.40;;
37495;SDS011;23346;52.088;4.746;2022-07-29T13:12:16;5.28;;;1.60;;
37495;SDS011;23346;52.088;4.746;2022-07-29T13:14:46;5.80;;;1.67;;
37495;SDS011;23346;52.088;4.746;2022-07-29T13:17:13;8.63;;;1.45;;
37495;SDS011;23346;52.088;4.746;2022-07-29T13:22:10;3.17;;;1.20;;
37495;SDS011;23346;52.088;4.746;2022-07-29T13:24:54;7.93;;;1.33;;
37495;SDS011;23346;52.088;4.746;2022-07-29T13:27:28;4.85;;;1.10;;
37495;SDS011;23346;52.088;4.746;2022-07-29T13:29:55;6.43;;;0.90;;
37495;SDS011;23346;52.088;4.746;2022-07-29T13:32:25;2.95;;;0.98;;
37495;SDS011;23346;52.088;4.746;2022-07-29T13:34:52;4.53;;;1.23;;
37495;SDS011;23346;52.088;4.746;2022-07-29T13:37:18;5.90;;;1.17;;
37495;SDS011;23346;52.088;4.746;2022-07-29T13:39:44;6.07;;;1.30;;
37495;SDS011;23346;52.088;4.746;2022-07-29T13:42:10;5.05;;;1.30;;
37495;SDS011;23346;52.088;4.746;2022-07-29T13:44:39;4.38;;;1.27;;
37495;SDS011;23346;52.088;4.746;2022-07-29T13:47:06;4.47;;;1.25;;
37495;SDS011;23346;52.088;4.746;2022-07-29T13:49:33;4.28;;;0.95;;
37495;SDS011;23346;52.088;4.746;2022-07-29T13:51:59;4.88;;;1.33;;
37495;SDS011;23346;52.088;4.746;2022-07-29T13:54:25;8.32;;;1.58;;
37495;SDS011;23346;52.088;4.746;2022-07-29T13:56:51;2.03;;;1.30;;
37495;SDS011;23346;52.088;4.746;2022-07-29T13:59:17;7.88;;;1.48;;
37495;SDS011;23346;52.088;4.746;2022-07-29T14:01:43;3.45;;;1.77;;
37495;SDS011;23346;52.088;4.746;2022-07-29T14:04:09;7.05;;;1.38;;
37495;SDS011;23346;52.088;4.746;2022-07-29T14:06:35;3.58;;;1.33;;
37495;SDS011;23346;52.088;4.746;2022-07-29T14:09:02;3.85;;;0.82;;
37495;SDS011;23346;52.088;4.746;2022-07-29T14:11:31;6.13;;;1.17;;
37495;SDS011;23346;52.088;4.746;2022-07-29T14:13:57;5.35;;;1.30;;
37495;SDS011;23346;52.088;4.746;2022-07-29T14:16:23;5.68;;;1.52;;
37495;SDS011;23346;52.088;4.746;2022-07-29T14:18:49;3.05;;;1.05;;
37495;SDS011;23346;52.088;4.746;2022-07-29T14:21:15;5.13;;;1.05;;
37495;SDS011;23346;52.088;4.746;2022-07-29T14:23:41;3.35;;;1.17;;
37495;SDS011;23346;52.088;4.746;2022-07-29T14:26:07;3.92;;;1.10;;
37495;SDS011;23346;52.088;4.746;2022-07-29T14:28:33;3.78;;;1.00;;
37495;SDS011;23346;52.088;4.746;2022-07-29T14:30:59;3.22;;;1.15;;
37495;SDS011;23346;52.088;4.746;2022-07-29T14:33:25;9.27;;;1.10;;
37495;SDS011;23346;52.088;4.746;2022-07-29T14:35:51;5.13;;;0.93;;
37495;SDS011;23346;52.088;4.746;2022-07-29T14:38:17;3.65;;;1.02;;
37495;SDS011;23346;52.088;4.746;2022-07-29T14:40:43;3.90;;;1.20;;
37495;SDS011;23346;52.088;4.746;2022-07-29T14:43:09;6.90;;;1.33;;
37495;SDS011;23346;52.088;4.746;2022-07-29T14:45:35;3.83;;;0.82;;
37495;SDS011;23346;52.088;4.746;2022-07-29T14:48:01;4.53;;;0.90;;
37495;SDS011;23346;52.088;4.746;2022-07-29T14:50:27;4.88;;;0.90;;
37495;SDS011;23346;52.088;4.746;2022-07-29T14:52:53;8.52;;;1.10;;
37495;SDS011;23346;52.088;4.746;2022-07-29T14:55:19;7.65;;;0.90;;
37495;SDS011;23346;52.088;4.746;2022-07-29T14:57:45;4.95;;;0.90;;
37495;SDS011;23346;52.088;4.746;2022-07-29T15:00:11;10.07;;;0.90;;
37495;SDS011;23346;52.088;4.746;2022-07-29T15:02:37;4.03;;;0.93;;
37495;SDS011;23346;52.088;4.746;2022-07-29T15:05:03;8.18;;;1.05;;
37495;SDS011;23346;52.088;4.746;2022-07-29T15:07:30;3.90;;;1.02;;
37495;SDS011;23346;52.088;4.746;2022-07-29T15:09:56;3.67;;;0.80;;
37495;SDS011;23346;52.088;4.746;2022-07-29T15:12:22;4.00;;;0.90;;
37495;SDS011;23346;52.088;4.746;2022-07-29T15:14:48;4.07;;;0.90;;
37495;SDS011;23346;52.088;4.746;2022-07-29T15:17:14;3.25;;;1.10;;
37495;SDS011;23346;52.088;4.746;2022-07-29T15:19:40;4.68;;;1.00;;
37495;SDS011;23346;52.088;4.746;2022-07-29T15:22:06;6.20;;;1.02;;
37495;SDS011;23346;52.088;4.746;2022-07-29T15:24:32;9.35;;;1.08;;
37495;SDS011;23346;52.088;4.746;2022-07-29T15:26:59;4.40;;;0.85;;
37495;SDS011;23346;52.088;4.746;2022-07-29T15:29:25;1.98;;;0.80;;